createdAt,value
2023-05-03T00:01:00.980Z,14.50
2023-05-03T00:03:32.820Z,14.50
2023-05-03T00:06:12.616Z,14.50
2023-05-03T00:08:44.618Z,14.40
2023-05-03T00:11:16.503Z,14.40
2023-05-03T00:13:48.554Z,14.40
2023-05-03T00:16:20.997Z,14.40
2023-05-03T00:18:52.861Z,14.50
2023-05-03T00:21:24.824Z,14.40
2023-05-03T00:23:56.747Z,14.50
2023-05-03T00:26:28.949Z,14.60
2023-05-03T00:29:01.328Z,14.50
2023-05-03T00:31:33.408Z,14.40
2023-05-03T00:34:05.347Z,14.40
2023-05-03T00:36:37.281Z,14.40
2023-05-03T00:39:09.961Z,14.30
2023-05-03T00:41:42.214Z,14.20
2023-05-03T00:44:14.409Z,14.20
2023-05-03T00:46:46.376Z,14.10
2023-05-03T00:49:18.793Z,14.10
2023-05-03T00:51:54.669Z,14.20
2023-05-03T00:54:30.676Z,14.20
2023-05-03T00:57:04.989Z,14.20
2023-05-03T00:59:37.864Z,14.20
2023-05-03T01:02:09.830Z,14.20
2023-05-03T01:04:43.325Z,14.20
2023-05-03T01:07:40.564Z,14.20
2023-05-03T01:10:25.628Z,14.20
2023-05-03T01:13:11.097Z,14.20
2023-05-03T01:16:13.715Z,14.20
2023-05-03T01:18:49.854Z,14.20
2023-05-03T01:21:24.107Z,14.30
2023-05-03T01:24:17.966Z,14.20
2023-05-03T01:26:50.133Z,14.10
2023-05-03T01:29:22.049Z,14.10
2023-05-03T01:31:59.889Z,14.10
2023-05-03T01:34:50.897Z,14.10
2023-05-03T01:37:23.307Z,14.10
2023-05-03T01:40:01.333Z,14.10
2023-05-03T01:42:36.977Z,14.10
2023-05-03T01:45:10.278Z,14.00
2023-05-03T01:47:42.220Z,13.90
2023-05-03T01:50:17.379Z,13.80
2023-05-03T01:52:51.398Z,13.80
2023-05-03T01:55:23.296Z,13.80
2023-05-03T01:57:55.319Z,13.90
2023-05-03T02:00:27.361Z,13.80
2023-05-03T02:02:59.242Z,13.80
2023-05-03T02:05:31.370Z,13.80
2023-05-03T02:08:03.514Z,13.70
2023-05-03T02:10:35.525Z,13.70
2023-05-03T02:13:07.333Z,13.70
2023-05-03T02:15:39.192Z,13.60
2023-05-03T02:18:11.007Z,13.50
2023-05-03T02:20:46.626Z,13.50
2023-05-03T02:23:18.589Z,13.50
2023-05-03T02:25:50.720Z,13.50
2023-05-03T02:28:22.651Z,13.50
2023-05-03T02:30:54.570Z,13.50
2023-05-03T02:33:26.449Z,13.40
2023-05-03T02:35:58.285Z,13.30
2023-05-03T02:38:30.314Z,13.30
2023-05-03T02:41:02.286Z,13.30
2023-05-03T02:43:35.494Z,13.30
2023-05-03T02:46:07.881Z,13.30
2023-05-03T02:48:39.752Z,13.30
2023-05-03T02:51:11.622Z,13.30
2023-05-03T02:53:43.496Z,13.20
2023-05-03T02:56:15.347Z,13.40
2023-05-03T02:58:47.132Z,13.60
2023-05-03T03:01:19.068Z,13.70
2023-05-03T03:03:52.098Z,13.80
2023-05-03T03:06:24.502Z,13.80
2023-05-03T03:08:56.618Z,13.80
2023-05-03T03:11:29.020Z,13.80
2023-05-03T03:14:00.886Z,13.70
2023-05-03T03:16:32.981Z,13.60
2023-05-03T03:19:04.966Z,13.50
2023-05-03T03:21:37.260Z,13.60
2023-05-03T03:24:09.289Z,13.60
2023-05-03T03:26:41.177Z,13.60
2023-05-03T03:29:13.106Z,13.60
2023-05-03T03:31:47.609Z,13.70
2023-05-03T03:34:20.632Z,13.70
2023-05-03T03:36:52.855Z,13.70
2023-05-03T03:39:24.876Z,13.70
2023-05-03T03:41:57.180Z,13.60
2023-05-03T03:44:29.833Z,13.70
2023-05-03T03:47:02.063Z,13.80
2023-05-03T03:49:34.028Z,13.70
2023-05-03T03:52:06.823Z,13.70
2023-05-03T03:54:40.690Z,13.70
2023-05-03T03:57:12.588Z,13.70
2023-05-03T03:59:44.739Z,13.60
2023-05-03T04:02:16.753Z,13.50
2023-05-03T04:04:48.647Z,13.50
2023-05-03T04:07:22.533Z,13.40
2023-05-03T04:09:56.599Z,13.30
2023-05-03T04:12:29.424Z,13.40
2023-05-03T04:15:01.358Z,13.40
2023-05-03T04:17:35.074Z,13.40
2023-05-03T04:20:11.209Z,13.50
2023-05-03T04:22:45.412Z,13.60
2023-05-03T04:25:19.607Z,13.60
2023-05-03T04:28:00.043Z,13.50
2023-05-03T04:30:35.855Z,13.60
2023-05-03T04:33:09.356Z,13.60
2023-05-03T04:35:42.184Z,13.70
2023-05-03T04:38:19.662Z,13.80
2023-05-03T04:40:51.667Z,13.80
2023-05-03T04:43:23.947Z,13.70
2023-05-03T04:45:55.868Z,13.70
2023-05-03T04:48:32.084Z,13.60
2023-05-03T04:51:04.448Z,13.60
2023-05-03T04:53:36.788Z,13.60
2023-05-03T04:56:13.914Z,13.60
2023-05-03T04:58:46.321Z,13.70
2023-05-03T05:01:26.349Z,13.70
2023-05-03T05:04:00.942Z,13.80
2023-05-03T05:06:39.917Z,13.80
2023-05-03T05:09:26.420Z,13.70
2023-05-03T05:12:01.851Z,13.80
2023-05-03T05:14:39.569Z,13.70
2023-05-03T05:17:13.281Z,13.80
2023-05-03T05:19:46.462Z,13.80
2023-05-03T05:22:19.757Z,13.90
2023-05-03T05:24:57.214Z,14.00
2023-05-03T05:27:29.430Z,14.10
2023-05-03T05:30:04.630Z,14.10
2023-05-03T05:32:37.621Z,14.00
2023-05-03T05:35:17.673Z,14.00
2023-05-03T05:37:49.826Z,14.10
2023-05-03T05:40:21.988Z,14.10
2023-05-03T05:42:59.603Z,14.10
2023-05-03T05:45:34.558Z,14.20
2023-05-03T05:48:08.365Z,14.20
2023-05-03T05:50:40.344Z,14.30
2023-05-03T05:53:15.410Z,14.40
2023-05-03T05:55:54.731Z,14.50
2023-05-03T05:58:26.770Z,14.50
2023-05-03T06:01:04.995Z,14.60
2023-05-03T06:03:40.492Z,14.70
2023-05-03T06:06:13.768Z,14.70
2023-05-03T06:08:49.745Z,14.70
2023-05-03T06:11:21.755Z,14.80
2023-05-03T06:13:54.549Z,14.80
2023-05-03T06:16:26.971Z,14.80
2023-05-03T06:18:59.928Z,14.90
2023-05-03T06:21:31.886Z,15.10
2023-05-03T06:24:05.525Z,15.10
2023-05-03T06:26:37.429Z,15.20
2023-05-03T06:29:10.013Z,15.20
2023-05-03T06:31:42.334Z,15.30
2023-05-03T06:34:21.888Z,15.40
2023-05-03T06:36:55.830Z,15.50
2023-05-03T06:39:28.559Z,15.50
2023-05-03T06:42:01.154Z,15.60
2023-05-03T06:44:39.766Z,15.70
2023-05-03T06:47:17.318Z,15.70
2023-05-03T06:49:51.724Z,15.70
2023-05-03T06:52:23.609Z,15.80
2023-05-03T06:54:55.677Z,16.00
2023-05-03T06:57:28.811Z,16.20
2023-05-03T07:00:01.138Z,16.20
2023-05-03T07:02:33.959Z,16.30
2023-05-03T07:05:06.397Z,16.40
2023-05-03T07:07:38.197Z,16.60
2023-05-03T07:10:10.474Z,16.80
2023-05-03T07:12:42.388Z,17.00
2023-05-03T07:15:15.003Z,17.10
2023-05-03T07:17:46.951Z,17.20
2023-05-03T07:20:19.028Z,17.30
2023-05-03T07:22:50.958Z,17.30
2023-05-03T07:25:22.943Z,17.50
2023-05-03T07:27:54.878Z,17.60
2023-05-03T07:30:26.962Z,17.80
2023-05-03T07:33:01.981Z,18.20
2023-05-03T07:35:33.904Z,18.60
2023-05-03T07:38:05.806Z,19.00
2023-05-03T07:40:37.692Z,19.20
2023-05-03T07:43:12.597Z,19.40
2023-05-03T07:45:44.598Z,19.50
2023-05-03T07:48:16.647Z,19.60
2023-05-03T07:50:52.002Z,19.60
2023-05-03T07:53:24.130Z,19.40
2023-05-03T07:55:56.085Z,19.30
2023-05-03T07:58:38.954Z,19.70
2023-05-03T08:01:11.996Z,20.30
2023-05-03T08:03:46.709Z,20.80
2023-05-03T08:06:19.174Z,21.20
2023-05-03T08:08:53.573Z,21.50
2023-05-03T08:11:29.276Z,21.60
2023-05-03T08:14:03.949Z,21.60
2023-05-03T08:16:36.084Z,21.60
2023-05-03T08:19:08.669Z,21.70
2023-05-03T08:21:40.621Z,21.80
2023-05-03T08:24:16.033Z,21.80
2023-05-03T08:26:48.489Z,21.70
2023-05-03T08:29:21.176Z,21.70
2023-05-03T08:31:53.347Z,21.70
2023-05-03T08:34:29.149Z,21.80
2023-05-03T08:37:03.174Z,21.70
2023-05-03T08:39:35.025Z,21.90
2023-05-03T08:42:12.244Z,21.90
2023-05-03T08:44:50.866Z,21.60
2023-05-03T08:47:22.948Z,21.60
2023-05-03T08:49:59.416Z,21.90
2023-05-03T08:52:33.964Z,21.90
2023-05-03T08:55:07.749Z,22.10
2023-05-03T08:57:41.272Z,22.40
2023-05-03T09:00:18.739Z,22.60
2023-05-03T09:02:51.861Z,23.00
2023-05-03T09:05:26.031Z,23.30
2023-05-03T09:08:04.023Z,23.30
2023-05-03T09:10:44.651Z,23.00
2023-05-03T09:13:16.649Z,23.00
2023-05-03T09:15:55.326Z,23.20
2023-05-03T09:18:30.670Z,23.80
2023-05-03T09:21:02.490Z,24.20
2023-05-03T09:23:34.533Z,24.30
2023-05-03T09:26:07.449Z,23.60
2023-05-03T09:28:45.605Z,23.50
2023-05-03T09:31:17.624Z,23.20
2023-05-03T09:33:49.733Z,23.10
2023-05-03T09:36:21.905Z,23.00
2023-05-03T09:38:54.861Z,22.40
2023-05-03T09:41:28.402Z,22.40
2023-05-03T09:44:03.039Z,22.80
2023-05-03T09:46:35.082Z,23.30
2023-05-03T09:49:07.222Z,23.60
2023-05-03T09:51:41.759Z,23.60
2023-05-03T09:54:16.058Z,23.40
2023-05-03T09:56:55.980Z,23.60
2023-05-03T09:59:28.395Z,24.10
2023-05-03T10:02:03.180Z,24.50
2023-05-03T10:04:50.854Z,24.30
2023-05-03T10:07:25.700Z,24.80
2023-05-03T10:09:59.994Z,25.30
2023-05-03T10:12:34.806Z,25.70
2023-05-03T10:15:09.375Z,25.80
2023-05-03T10:17:48.644Z,25.40
2023-05-03T10:20:36.075Z,24.80
2023-05-03T10:23:14.419Z,24.40
2023-05-03T10:26:12.898Z,24.10
2023-05-03T10:28:46.605Z,23.70
2023-05-03T10:31:45.763Z,23.20
2023-05-03T10:34:22.599Z,22.40
2023-05-03T10:36:54.736Z,22.30
2023-05-03T10:39:28.910Z,22.10
2023-05-03T10:42:08.427Z,22.10
2023-05-03T10:44:51.839Z,22.40
2023-05-03T10:47:24.877Z,22.40
2023-05-03T10:50:12.133Z,22.60
2023-05-03T10:52:44.221Z,22.70
2023-05-03T10:55:20.425Z,22.70
2023-05-03T10:57:55.732Z,22.60
2023-05-03T11:00:33.719Z,22.60
2023-05-03T11:03:17.543Z,22.50
2023-05-03T11:05:49.544Z,22.60
2023-05-03T11:08:23.370Z,22.60
2023-05-03T11:11:03.039Z,22.50
2023-05-03T11:13:36.687Z,22.40
2023-05-03T11:16:08.679Z,22.30
2023-05-03T11:18:42.685Z,22.10
2023-05-03T11:21:19.126Z,22.10
2023-05-03T11:23:53.234Z,22.10
2023-05-03T11:26:35.991Z,22.00
2023-05-03T11:29:11.840Z,21.90
2023-05-03T11:31:45.955Z,21.90
2023-05-03T11:34:18.204Z,22.00
2023-05-03T11:36:51.302Z,22.00
2023-05-03T11:39:24.318Z,21.70
2023-05-03T11:42:04.345Z,21.60
2023-05-03T11:44:39.403Z,21.80
2023-05-03T11:47:11.806Z,21.90
2023-05-03T11:49:53.978Z,21.90
2023-05-03T11:52:30.750Z,21.90
2023-05-03T11:55:02.930Z,22.00
2023-05-03T11:57:37.942Z,22.20
2023-05-03T12:00:17.886Z,22.30
2023-05-03T12:02:50.223Z,22.40
2023-05-03T12:05:25.216Z,22.40
2023-05-03T12:07:58.103Z,22.40
2023-05-03T12:10:35.543Z,22.60
2023-05-03T12:13:12.318Z,22.80
2023-05-03T12:15:50.467Z,23.00
2023-05-03T12:18:52.425Z,22.80
2023-05-03T12:22:04.784Z,22.70
2023-05-03T12:24:45.196Z,22.70
2023-05-03T12:27:19.296Z,22.80
2023-05-03T12:30:02.180Z,22.50
2023-05-03T12:32:39.048Z,22.20
2023-05-03T12:35:14.088Z,22.10
2023-05-03T12:37:50.673Z,21.90
2023-05-03T12:40:34.045Z,21.50
2023-05-03T12:43:09.813Z,21.40
2023-05-03T12:45:46.375Z,21.10
2023-05-03T12:48:25.210Z,21.00
2023-05-03T12:51:17.642Z,21.10
2023-05-03T12:53:54.807Z,21.10
2023-05-03T12:56:31.912Z,21.40
2023-05-03T12:59:31.789Z,21.70
2023-05-03T13:04:56.817Z,21.30
2023-05-03T13:07:33.637Z,21.10
2023-05-03T13:12:51.343Z,21.10
2023-05-03T13:15:27.288Z,20.90
2023-05-03T13:18:02.579Z,20.70
2023-05-03T13:20:37.522Z,20.70
2023-05-03T13:23:09.477Z,20.60
2023-05-03T13:25:43.984Z,20.40
2023-05-03T13:28:19.963Z,20.30
2023-05-03T13:30:51.896Z,20.50
2023-05-03T13:33:29.197Z,20.50
2023-05-03T13:36:01.329Z,20.60
2023-05-03T13:38:36.631Z,20.70
2023-05-03T13:41:12.379Z,20.50
2023-05-03T13:43:44.417Z,20.40
2023-05-03T13:46:16.777Z,20.20
2023-05-03T13:48:48.806Z,20.30
2023-05-03T13:51:20.801Z,20.50
2023-05-03T13:53:55.025Z,20.50
2023-05-03T13:56:27.288Z,20.60
2023-05-03T13:58:59.244Z,20.60
2023-05-03T14:01:31.354Z,20.60
2023-05-03T14:04:06.873Z,20.70
2023-05-03T14:06:41.243Z,20.70
2023-05-03T14:09:14.121Z,20.80
2023-05-03T14:11:46.055Z,20.80
2023-05-03T14:14:18.155Z,20.70
2023-05-03T14:16:50.137Z,20.60
2023-05-03T14:19:24.964Z,20.50
2023-05-03T14:21:59.153Z,20.40
2023-05-03T14:24:31.684Z,20.30
2023-05-03T14:27:03.709Z,20.20
2023-05-03T14:29:35.738Z,20.00
2023-05-03T14:32:09.077Z,19.60
2023-05-03T14:34:40.950Z,19.00
2023-05-03T14:37:12.991Z,18.60
2023-05-03T14:39:44.899Z,18.30
2023-05-03T14:42:16.692Z,18.50
2023-05-03T14:44:48.571Z,18.60
2023-05-03T14:47:20.860Z,18.90
2023-05-03T14:49:52.751Z,19.20
2023-05-03T14:52:24.640Z,19.30
2023-05-03T14:54:56.580Z,19.50
2023-05-03T14:57:28.443Z,19.70
2023-05-03T15:00:05.492Z,19.80
2023-05-03T15:02:37.854Z,19.90
2023-05-03T15:05:10.797Z,19.90
2023-05-03T15:07:42.691Z,19.70
2023-05-03T15:10:14.782Z,19.60
2023-05-03T15:12:47.577Z,19.20
2023-05-03T15:15:19.562Z,18.90
2023-05-03T15:17:51.452Z,18.70
2023-05-03T15:20:24.147Z,18.70
2023-05-03T15:22:56.143Z,18.70
2023-05-03T15:25:27.972Z,18.70
2023-05-03T15:28:03.804Z,18.80
2023-05-03T15:30:36.872Z,19.00
2023-05-03T15:33:10.866Z,19.00
2023-05-03T15:35:42.900Z,19.10
2023-05-03T15:38:14.772Z,19.10
2023-05-03T15:40:46.698Z,19.20
2023-05-03T15:43:18.699Z,19.30
2023-05-03T15:45:50.863Z,19.40
2023-05-03T15:48:22.746Z,19.70
2023-05-03T15:50:54.591Z,19.90
2023-05-03T15:53:27.203Z,20.00
2023-05-03T15:55:59.499Z,19.90
2023-05-03T15:58:31.887Z,20.00
2023-05-03T16:01:04.200Z,20.00
2023-05-03T16:03:36.145Z,20.10
2023-05-03T16:06:09.421Z,20.00
2023-05-03T16:08:42.230Z,20.00
2023-05-03T16:11:14.180Z,19.90
2023-05-03T16:13:46.527Z,19.70
2023-05-03T16:16:19.033Z,19.70
2023-05-03T16:18:54.011Z,19.50
2023-05-03T16:21:26.956Z,19.30
2023-05-03T16:23:59.437Z,19.30
2023-05-03T16:26:31.827Z,19.30
2023-05-03T16:29:03.944Z,19.20
2023-05-03T16:31:36.063Z,19.20
2023-05-03T16:34:07.925Z,19.30
2023-05-03T16:36:42.940Z,19.20
2023-05-03T16:39:15.039Z,19.10
2023-05-03T16:41:47.005Z,19.20
2023-05-03T16:44:19.374Z,19.10
2023-05-03T16:46:51.722Z,19.10
2023-05-03T16:49:23.825Z,18.90
2023-05-03T16:51:56.881Z,18.90
2023-05-03T16:54:29.079Z,18.70
2023-05-03T16:57:02.242Z,18.70
2023-05-03T16:59:34.442Z,18.80
2023-05-03T17:02:06.987Z,18.90
2023-05-03T17:04:39.033Z,18.90
2023-05-03T17:07:10.982Z,18.90
2023-05-03T17:09:43.659Z,18.80
2023-05-03T17:12:16.337Z,18.90
2023-05-03T17:14:48.243Z,18.90
2023-05-03T17:17:20.101Z,18.90
2023-05-03T17:19:52.303Z,18.90
2023-05-03T17:22:24.224Z,18.70
2023-05-03T17:24:57.981Z,18.50
2023-05-03T17:27:29.948Z,18.40
2023-05-03T17:30:02.429Z,18.30
2023-05-03T17:32:34.846Z,18.20
2023-05-03T17:35:07.235Z,18.10
2023-05-03T17:37:39.539Z,18.10
2023-05-03T17:40:12.081Z,18.00
2023-05-03T17:42:45.089Z,18.10
2023-05-03T17:45:17.001Z,18.10
2023-05-03T17:47:48.872Z,18.20
2023-05-03T17:50:20.818Z,18.40
2023-05-03T17:52:54.300Z,18.40
2023-05-03T17:55:27.517Z,18.50
2023-05-03T17:57:59.780Z,18.50
2023-05-03T18:00:32.186Z,18.40
2023-05-03T18:03:04.778Z,18.40
2023-05-03T18:05:37.241Z,18.30
2023-05-03T18:08:09.652Z,18.20
2023-05-03T18:10:43.273Z,18.10
2023-05-03T18:13:15.355Z,18.00
2023-05-03T18:15:47.446Z,17.80
2023-05-03T18:18:19.502Z,17.60
2023-05-03T18:20:59.091Z,17.60
2023-05-03T18:23:31.894Z,17.40
2023-05-03T18:26:04.010Z,17.40
2023-05-03T18:28:37.306Z,17.30
2023-05-03T18:31:11.128Z,17.20
2023-05-03T18:33:43.132Z,17.10
2023-05-03T18:36:15.650Z,17.10
2023-05-03T18:38:48.649Z,17.10
2023-05-03T18:41:20.960Z,17.00
2023-05-03T18:43:52.860Z,17.00
2023-05-03T18:46:24.924Z,17.00
2023-05-03T18:48:57.590Z,16.90
2023-05-03T18:51:29.836Z,16.80
2023-05-03T18:54:02.726Z,16.70
2023-05-03T18:56:35.603Z,16.70
2023-05-03T18:59:07.928Z,16.60
2023-05-03T19:01:39.953Z,16.50
2023-05-03T19:04:14.824Z,16.40
2023-05-03T19:06:47.706Z,16.50
2023-05-03T19:09:20.940Z,16.50
2023-05-03T19:11:55.308Z,16.50
2023-05-03T19:14:28.192Z,16.50
2023-05-03T19:17:00.500Z,16.30
2023-05-03T19:19:32.625Z,16.30
2023-05-03T19:22:05.083Z,16.40
2023-05-03T19:24:37.083Z,16.40
2023-05-03T19:27:09.430Z,16.50
2023-05-03T19:29:42.357Z,16.50
2023-05-03T19:32:15.468Z,16.50
2023-05-03T19:34:48.329Z,16.50
2023-05-03T19:37:21.601Z,16.40
2023-05-03T19:39:53.738Z,16.30
2023-05-03T19:42:26.764Z,16.20
2023-05-03T19:44:59.959Z,16.30
2023-05-03T19:47:32.780Z,16.40
2023-05-03T19:50:05.324Z,16.30
2023-05-03T19:52:37.908Z,16.20
2023-05-03T19:55:10.732Z,16.20
2023-05-03T19:57:42.846Z,16.20
2023-05-03T20:00:15.807Z,16.10
2023-05-03T20:02:47.766Z,16.10
2023-05-03T20:05:20.066Z,16.10
2023-05-03T20:07:53.098Z,16.10
2023-05-03T20:10:25.167Z,16.10
2023-05-03T20:12:57.058Z,16.10
2023-05-03T20:15:29.252Z,16.10
2023-05-03T20:18:01.303Z,16.00
2023-05-03T20:20:33.337Z,16.00
2023-05-03T20:23:05.176Z,16.00
2023-05-03T20:25:37.066Z,16.10
2023-05-03T20:28:09.199Z,16.20
2023-05-03T20:30:41.625Z,16.10
2023-05-03T20:33:13.633Z,16.10
2023-05-03T20:35:46.113Z,16.10
2023-05-03T20:38:18.756Z,16.10
2023-05-03T20:40:51.471Z,16.10
2023-05-03T20:43:23.463Z,16.00
2023-05-03T20:45:55.387Z,15.90
2023-05-03T20:48:27.684Z,15.90
2023-05-03T20:51:00.815Z,15.90
2023-05-03T20:53:32.784Z,16.10
2023-05-03T20:56:08.581Z,16.00
2023-05-03T20:58:40.961Z,16.10
2023-05-03T21:01:14.332Z,16.10
2023-05-03T21:03:47.461Z,16.00
2023-05-03T21:06:19.441Z,16.00
2023-05-03T21:08:52.841Z,15.90
2023-05-03T21:11:24.795Z,15.90
2023-05-03T21:13:56.686Z,16.00
2023-05-03T21:16:28.633Z,16.00
2023-05-03T21:19:01.531Z,16.10
2023-05-03T21:21:38.145Z,16.10
2023-05-03T21:24:10.307Z,16.10
2023-05-03T21:26:42.462Z,16.10
2023-05-03T21:29:14.272Z,16.10
2023-05-03T21:31:46.334Z,15.90
2023-05-03T21:34:18.245Z,15.90
2023-05-03T21:36:50.574Z,15.90
2023-05-03T21:39:22.491Z,15.80
2023-05-03T21:41:54.760Z,15.80
2023-05-03T21:44:26.686Z,15.80
2023-05-03T21:46:58.738Z,15.80
2023-05-03T21:49:30.659Z,15.70
2023-05-03T21:52:02.688Z,15.60
2023-05-03T21:54:34.562Z,15.70
2023-05-03T21:57:06.535Z,15.60
2023-05-03T21:59:38.436Z,15.60
2023-05-03T22:02:11.867Z,15.50
2023-05-03T22:04:43.761Z,15.50
2023-05-03T22:07:16.504Z,15.50
2023-05-03T22:09:48.962Z,15.50
2023-05-03T22:12:24.180Z,15.50
2023-05-03T22:14:57.371Z,15.50
2023-05-03T22:17:29.214Z,15.40
2023-05-03T22:20:01.075Z,15.40
2023-05-03T22:22:32.949Z,15.30
2023-05-03T22:25:05.512Z,15.30
2023-05-03T22:27:37.404Z,15.30
2023-05-03T22:30:09.772Z,15.40
2023-05-03T22:32:41.694Z,15.60
2023-05-03T22:35:14.978Z,15.60
2023-05-03T22:37:46.883Z,15.70
2023-05-03T22:40:19.737Z,15.70
2023-05-03T22:42:51.564Z,15.60
2023-05-03T22:45:23.525Z,15.60
2023-05-03T22:47:55.700Z,15.60
2023-05-03T22:50:27.630Z,15.60
2023-05-03T22:52:59.508Z,15.60
2023-05-03T22:55:31.504Z,15.60
2023-05-03T22:58:03.505Z,15.50
2023-05-03T23:00:35.320Z,15.40
2023-05-03T23:03:08.247Z,15.40
2023-05-03T23:05:40.801Z,15.30
2023-05-03T23:08:14.086Z,15.30
2023-05-03T23:10:46.025Z,15.30
2023-05-03T23:13:18.024Z,15.30
2023-05-03T23:15:50.693Z,15.30
2023-05-03T23:18:22.748Z,15.20
2023-05-03T23:20:54.626Z,15.20
2023-05-03T23:23:26.492Z,15.30
2023-05-03T23:25:58.320Z,15.30
2023-05-03T23:28:30.717Z,15.30
2023-05-03T23:31:02.891Z,15.20
2023-05-03T23:33:35.150Z,15.10
2023-05-03T23:36:07.691Z,15.10
2023-05-03T23:38:39.637Z,15.00
2023-05-03T23:41:11.505Z,15.00
2023-05-03T23:43:43.340Z,14.90
2023-05-03T23:46:15.769Z,15.00
2023-05-03T23:48:47.660Z,15.00
2023-05-03T23:51:19.502Z,15.10
2023-05-03T23:53:51.533Z,15.20
2023-05-03T23:56:23.636Z,15.20
2023-05-03T23:58:55.569Z,15.10
